sensor_id;sensor_type;location;lat;lon;timestamp;pressure;altitude;pressure_sealevel;temperature;humidity
65756;BME280;69208;47.502;18.940;2023-04-25T00:00:18;97116.97;;;10.01;93.65
65756;BME280;69208;47.502;18.940;2023-04-25T00:01:21;97124.34;;;9.99;93.85
65756;BME280;69208;47.502;18.940;2023-04-25T00:02:25;97122.69;;;9.94;93.88
65756;BME280;69208;47.502;18.940;2023-04-25T00:03:28;97118.09;;;9.91;94.92
65756;BME280;69208;47.502;18.940;2023-04-25T00:04:32;97120.69;;;9.91;94.20
65756;BME280;69208;47.502;18.940;2023-04-25T00:05:36;97110.53;;;9.90;94.29
65756;BME280;69208;47.502;18.940;2023-04-25T00:06:40;97117.47;;;9.94;94.32
65756;BME280;69208;47.502;18.940;2023-04-25T00:07:43;97115.62;;;9.86;95.17
65756;BME280;69208;47.502;18.940;2023-04-25T00:08:46;97113.19;;;9.81;95.65
65756;BME280;69208;47.502;18.940;2023-04-25T00:09:49;97108.53;;;9.87;95.45
65756;BME280;69208;47.502;18.940;2023-04-25T00:10:53;97112.37;;;9.89;94.32
65756;BME280;69208;47.502;18.940;2023-04-25T00:11:56;97117.28;;;9.91;94.84
65756;BME280;69208;47.502;18.940;2023-04-25T00:12:59;97112.22;;;9.94;94.87
65756;BME280;69208;47.502;18.940;2023-04-25T00:14:05;97117.78;;;9.84;94.89
65756;BME280;69208;47.502;18.940;2023-04-25T00:15:09;97116.09;;;9.88;95.02
65756;BME280;69208;47.502;18.940;2023-04-25T00:16:13;97113.63;;;9.83;95.18
65756;BME280;69208;47.502;18.940;2023-04-25T00:17:18;97112.22;;;9.94;94.82
65756;BME280;69208;47.502;18.940;2023-04-25T00:18:22;97110.38;;;9.95;93.89
65756;BME280;69208;47.502;18.940;2023-04-25T00:19:25;97099.88;;;10.03;93.41
65756;BME280;69208;47.502;18.940;2023-04-25T00:20:29;97098.03;;;10.04;93.67
65756;BME280;69208;47.502;18.940;2023-04-25T00:21:33;97098.38;;;9.94;94.10
65756;BME280;69208;47.502;18.940;2023-04-25T00:22:36;97092.53;;;9.97;94.21
65756;BME280;69208;47.502;18.940;2023-04-25T00:23:42;97109.75;;;9.98;93.44
65756;BME280;69208;47.502;18.940;2023-04-25T00:24:45;97098.66;;;10.01;93.35
65756;BME280;69208;47.502;18.940;2023-04-25T00:25:49;97093.72;;;9.99;93.24
65756;BME280;69208;47.502;18.940;2023-04-25T00:26:52;97102.00;;;10.10;92.18
65756;BME280;69208;47.502;18.940;2023-04-25T00:27:55;97094.03;;;10.07;92.59
65756;BME280;69208;47.502;18.940;2023-04-25T00:28:58;97090.78;;;10.10;92.06
65756;BME280;69208;47.502;18.940;2023-04-25T00:30:01;97093.56;;;10.05;92.86
65756;BME280;69208;47.502;18.940;2023-04-25T00:31:06;97095.44;;;9.95;93.75
65756;BME280;69208;47.502;18.940;2023-04-25T00:32:09;97097.75;;;9.97;93.69
65756;BME280;69208;47.502;18.940;2023-04-25T00:33:12;97095.31;;;9.92;93.86
65756;BME280;69208;47.502;18.940;2023-04-25T00:34:15;97084.72;;;9.88;94.13
65756;BME280;69208;47.502;18.940;2023-04-25T00:35:19;97087.13;;;9.93;94.00
65756;BME280;69208;47.502;18.940;2023-04-25T00:36:22;97088.22;;;9.92;94.07
65756;BME280;69208;47.502;18.940;2023-04-25T00:37:25;97102.38;;;9.91;94.18
65756;BME280;69208;47.502;18.940;2023-04-25T00:38:28;97079.91;;;9.90;94.38
65756;BME280;69208;47.502;18.940;2023-04-25T00:39:31;97095.94;;;9.89;94.86
65756;BME280;69208;47.502;18.940;2023-04-25T00:40:34;97085.25;;;10.02;94.30
65756;BME280;69208;47.502;18.940;2023-04-25T00:41:38;97089.59;;;9.98;94.12
65756;BME280;69208;47.502;18.940;2023-04-25T00:42:41;97088.97;;;9.93;94.84
65756;BME280;69208;47.502;18.940;2023-04-25T00:43:45;97085.56;;;10.01;94.14
65756;BME280;69208;47.502;18.940;2023-04-25T00:44:48;97086.38;;;9.93;94.61
65756;BME280;69208;47.502;18.940;2023-04-25T00:45:53;97083.63;;;9.89;94.17
65756;BME280;69208;47.502;18.940;2023-04-25T00:46:56;97088.72;;;9.86;94.89
65756;BME280;69208;47.502;18.940;2023-04-25T00:48:00;97086.22;;;9.89;94.98
65756;BME280;69208;47.502;18.940;2023-04-25T00:49:03;97079.47;;;9.88;95.47
65756;BME280;69208;47.502;18.940;2023-04-25T00:50:07;97079.47;;;9.88;95.15
65756;BME280;69208;47.502;18.940;2023-04-25T00:51:14;97073.41;;;9.96;94.73
65756;BME280;69208;47.502;18.940;2023-04-25T00:52:19;97079.91;;;9.90;94.93
65756;BME280;69208;47.502;18.940;2023-04-25T00:53:24;97071.63;;;9.88;95.18
65756;BME280;69208;47.502;18.940;2023-04-25T00:54:27;97069.28;;;9.95;94.81
65756;BME280;69208;47.502;18.940;2023-04-25T00:55:31;97066.69;;;9.87;95.39
65756;BME280;69208;47.502;18.940;2023-04-25T00:56:34;97062.72;;;9.80;95.48
65756;BME280;69208;47.502;18.940;2023-04-25T00:57:38;97063.03;;;9.79;95.76
65756;BME280;69208;47.502;18.940;2023-04-25T00:58:43;97062.88;;;9.75;95.91
65756;BME280;69208;47.502;18.940;2023-04-25T00:59:46;97059.84;;;9.73;96.03
65756;BME280;69208;47.502;18.940;2023-04-25T01:00:51;97063.94;;;9.83;95.48
65756;BME280;69208;47.502;18.940;2023-04-25T01:01:58;97062.84;;;9.84;95.12
65756;BME280;69208;47.502;18.940;2023-04-25T01:03:01;97065.03;;;9.82;95.07
65756;BME280;69208;47.502;18.940;2023-04-25T01:04:05;97060.44;;;9.79;95.68
65756;BME280;69208;47.502;18.940;2023-04-25T01:05:08;97066.59;;;9.74;95.63
65756;BME280;69208;47.502;18.940;2023-04-25T01:06:12;97063.47;;;9.81;95.41
65756;BME280;69208;47.502;18.940;2023-04-25T01:07:15;97060.56;;;9.83;95.23
65756;BME280;69208;47.502;18.940;2023-04-25T01:08:21;97063.00;;;9.88;94.76
65756;BME280;69208;47.502;18.940;2023-04-25T01:09:26;97054.97;;;9.93;94.54
65756;BME280;69208;47.502;18.940;2023-04-25T01:10:30;97060.53;;;9.91;94.78
65756;BME280;69208;47.502;18.940;2023-04-25T01:11:33;97059.59;;;9.87;95.61
65756;BME280;69208;47.502;18.940;2023-04-25T01:12:36;97055.62;;;9.81;95.79
65756;BME280;69208;47.502;18.940;2023-04-25T01:13:39;97051.97;;;9.73;95.49
65756;BME280;69208;47.502;18.940;2023-04-25T01:14:42;97053.38;;;9.71;95.96
65756;BME280;69208;47.502;18.940;2023-04-25T01:15:46;97048.41;;;9.78;96.18
65756;BME280;69208;47.502;18.940;2023-04-25T01:16:48;97059.50;;;9.75;96.08
65756;BME280;69208;47.502;18.940;2023-04-25T01:17:52;97053.03;;;9.81;95.73
65756;BME280;69208;47.502;18.940;2023-04-25T01:18:55;97046.72;;;9.82;95.11
65756;BME280;69208;47.502;18.940;2023-04-25T01:19:59;97050.13;;;9.74;95.41
65756;BME280;69208;47.502;18.940;2023-04-25T01:21:10;97053.19;;;9.76;95.78
65756;BME280;69208;47.502;18.940;2023-04-25T01:22:14;97055.50;;;9.77;94.75
65756;BME280;69208;47.502;18.940;2023-04-25T01:23:19;97056.41;;;9.82;94.63
65756;BME280;69208;47.502;18.940;2023-04-25T01:24:22;97063.47;;;9.81;94.61
65756;BME280;69208;47.502;18.940;2023-04-25T01:25:25;97060.09;;;9.80;93.58
65756;BME280;69208;47.502;18.940;2023-04-25T01:26:29;97049.97;;;9.79;92.74
65756;BME280;69208;47.502;18.940;2023-04-25T01:27:32;97051.03;;;9.78;93.13
65756;BME280;69208;47.502;18.940;2023-04-25T01:28:37;97057.03;;;9.78;92.51
65756;BME280;69208;47.502;18.940;2023-04-25T01:29:40;97058.25;;;9.81;92.09
65756;BME280;69208;47.502;18.940;2023-04-25T01:30:45;97048.28;;;9.74;92.74
65756;BME280;69208;47.502;18.940;2023-04-25T01:31:48;97048.91;;;9.71;93.17
65756;BME280;69208;47.502;18.940;2023-04-25T01:32:55;97056.75;;;9.71;92.28
65756;BME280;69208;47.502;18.940;2023-04-25T01:33:59;97046.91;;;9.68;93.15
65756;BME280;69208;47.502;18.940;2023-04-25T01:35:03;97054.44;;;9.70;93.47
65756;BME280;69208;47.502;18.940;2023-04-25T01:36:06;97053.41;;;9.62;93.16
65756;BME280;69208;47.502;18.940;2023-04-25T01:37:09;97049.53;;;9.68;92.87
65756;BME280;69208;47.502;18.940;2023-04-25T01:38:14;97047.53;;;9.74;92.69
65756;BME280;69208;47.502;18.940;2023-04-25T01:39:18;97045.66;;;9.74;92.17
65756;BME280;69208;47.502;18.940;2023-04-25T01:40:21;97054.75;;;9.68;92.50
65756;BME280;69208;47.502;18.940;2023-04-25T01:41:25;97049.84;;;9.67;92.56
65756;BME280;69208;47.502;18.940;2023-04-25T01:42:28;97044.31;;;9.60;93.12
65756;BME280;69208;47.502;18.940;2023-04-25T01:43:31;97049.84;;;9.67;92.36
65756;BME280;69208;47.502;18.940;2023-04-25T01:44:34;97046.44;;;9.66;91.48
65756;BME280;69208;47.502;18.940;2023-04-25T01:45:38;97047.69;;;9.60;91.87
65756;BME280;69208;47.502;18.940;2023-04-25T01:46:44;97046.19;;;9.50;92.35
65756;BME280;69208;47.502;18.940;2023-04-25T01:47:47;97056.03;;;9.53;92.45
65756;BME280;69208;47.502;18.940;2023-04-25T01:48:52;97048.19;;;9.53;92.64
65756;BME280;69208;47.502;18.940;2023-04-25T01:49:55;97050.03;;;9.53;92.39
65756;BME280;69208;47.502;18.940;2023-04-25T01:50:58;97047.88;;;9.46;91.83
65756;BME280;69208;47.502;18.940;2023-04-25T01:52:02;97050.03;;;9.53;91.89
65756;BME280;69208;47.502;18.940;2023-04-25T01:53:06;97056.50;;;9.55;91.75
65756;BME280;69208;47.502;18.940;2023-04-25T01:54:10;97050.78;;;9.62;91.23
65756;BME280;69208;47.502;18.940;2023-04-25T01:55:13;97046.44;;;9.75;90.45
65756;BME280;69208;47.502;18.940;2023-04-25T01:56:17;97038.31;;;9.68;90.06
65756;BME280;69208;47.502;18.940;2023-04-25T01:57:20;97042.31;;;9.65;90.61
65756;BME280;69208;47.502;18.940;2023-04-25T01:58:23;97047.22;;;9.67;90.42
65756;BME280;69208;47.502;18.940;2023-04-25T01:59:26;97050.19;;;9.56;90.62
65756;BME280;69208;47.502;18.940;2023-04-25T02:00:30;97049.09;;;9.57;90.88
65756;BME280;69208;47.502;18.940;2023-04-25T02:01:33;97035.72;;;9.59;90.92
65756;BME280;69208;47.502;18.940;2023-04-25T02:02:36;97044.44;;;9.72;89.91
65756;BME280;69208;47.502;18.940;2023-04-25T02:03:39;97059.69;;;9.61;90.70
65756;BME280;69208;47.502;18.940;2023-04-25T02:04:43;97052.63;;;9.62;90.71
65756;BME280;69208;47.502;18.940;2023-04-25T02:05:46;97048.00;;;9.67;90.00
65756;BME280;69208;47.502;18.940;2023-04-25T02:06:49;97049.41;;;9.65;89.71
65756;BME280;69208;47.502;18.940;2023-04-25T02:07:52;97053.25;;;9.59;90.32
65756;BME280;69208;47.502;18.940;2023-04-25T02:08:57;97051.09;;;9.61;89.99
65756;BME280;69208;47.502;18.940;2023-04-25T02:10:00;97056.31;;;9.61;89.83
65756;BME280;69208;47.502;18.940;2023-04-25T02:11:03;97056.50;;;9.55;90.15
65756;BME280;69208;47.502;18.940;2023-04-25T02:12:08;97052.31;;;9.63;89.71
65756;BME280;69208;47.502;18.940;2023-04-25T02:13:11;97059.22;;;9.68;89.54
65756;BME280;69208;47.502;18.940;2023-04-25T02:14:14;97051.69;;;9.66;88.96
65756;BME280;69208;47.502;18.940;2023-04-25T02:15:18;97061.84;;;9.68;89.01
65756;BME280;69208;47.502;18.940;2023-04-25T02:16:21;97055.53;;;9.60;89.13
65756;BME280;69208;47.502;18.940;2023-04-25T02:17:24;97054.00;;;9.68;88.38
65756;BME280;69208;47.502;18.940;2023-04-25T02:18:28;97061.69;;;9.64;88.76
65756;BME280;69208;47.502;18.940;2023-04-25T02:19:31;97057.88;;;9.53;89.37
65756;BME280;69208;47.502;18.940;2023-04-25T02:20:35;97065.41;;;9.46;89.64
65756;BME280;69208;47.502;18.940;2023-04-25T02:21:38;97057.75;;;9.41;89.60
65756;BME280;69208;47.502;18.940;2023-04-25T02:22:41;97049.75;;;9.37;89.90
65756;BME280;69208;47.502;18.940;2023-04-25T02:23:44;97061.75;;;9.38;89.98
65756;BME280;69208;47.502;18.940;2023-04-25T02:24:53;97056.66;;;9.42;90.07
65756;BME280;69208;47.502;18.940;2023-04-25T02:25:57;97063.41;;;9.51;89.57
65756;BME280;69208;47.502;18.940;2023-04-25T02:27:00;97061.25;;;9.53;89.16
65756;BME280;69208;47.502;18.940;2023-04-25T02:28:04;97055.56;;;9.51;89.15
65756;BME280;69208;47.502;18.940;2023-04-25T02:29:06;97062.66;;;9.51;88.75
65756;BME280;69208;47.502;18.940;2023-04-25T02:30:10;97064.34;;;9.55;88.02
65756;BME280;69208;47.502;18.940;2023-04-25T02:31:14;97058.31;;;9.55;87.29
65756;BME280;69208;47.502;18.940;2023-04-25T02:32:18;97063.91;;;9.45;88.49
65756;BME280;69208;47.502;18.940;2023-04-25T02:33:21;97060.06;;;9.42;88.52
65756;BME280;69208;47.502;18.940;2023-04-25T02:34:24;97057.91;;;9.44;88.06
65756;BME280;69208;47.502;18.940;2023-04-25T02:35:27;97057.41;;;9.51;87.53
65756;BME280;69208;47.502;18.940;2023-04-25T02:36:30;97065.87;;;9.48;87.21
65756;BME280;69208;47.502;18.940;2023-04-25T02:37:38;97061.75;;;9.47;87.28
65756;BME280;69208;47.502;18.940;2023-04-25T02:38:41;97056.66;;;9.42;87.72
65756;BME280;69208;47.502;18.940;2023-04-25T02:39:44;97047.88;;;9.46;87.89
65756;BME280;69208;47.502;18.940;2023-04-25T02:40:47;97059.56;;;9.49;87.97
65756;BME280;69208;47.502;18.940;2023-04-25T02:41:51;97056.66;;;9.50;88.33
65756;BME280;69208;47.502;18.940;2023-04-25T02:42:54;97060.50;;;9.44;87.73
65756;BME280;69208;47.502;18.940;2023-04-25T02:43:57;97067.91;;;9.42;88.62
65756;BME280;69208;47.502;18.940;2023-04-25T02:45:00;97056.22;;;9.40;88.17
65756;BME280;69208;47.502;18.940;2023-04-25T02:46:04;97057.59;;;9.37;88.16
65756;BME280;69208;47.502;18.940;2023-04-25T02:47:08;97056.53;;;9.38;88.35
65756;BME280;69208;47.502;18.940;2023-04-25T02:48:11;97059.75;;;9.35;88.69
65756;BME280;69208;47.502;18.940;2023-04-25T02:49:14;97053.91;;;9.38;88.74
65756;BME280;69208;47.502;18.940;2023-04-25T02:50:17;97061.00;;;9.38;88.79
65756;BME280;69208;47.502;18.940;2023-04-25T02:51:21;97051.44;;;9.42;89.00
65756;BME280;69208;47.502;18.940;2023-04-25T02:52:24;97063.28;;;9.48;88.12
65756;BME280;69208;47.502;18.940;2023-04-25T02:53:27;97067.13;;;9.42;88.94
65756;BME280;69208;47.502;18.940;2023-04-25T02:54:31;97068.66;;;9.34;88.41
65756;BME280;69208;47.502;18.940;2023-04-25T02:55:34;97062.06;;;9.28;88.73
65756;BME280;69208;47.502;18.940;2023-04-25T02:56:37;97068.06;;;9.28;89.33
65756;BME280;69208;47.502;18.940;2023-04-25T02:57:40;97061.91;;;9.33;88.88
65756;BME280;69208;47.502;18.940;2023-04-25T02:58:43;97062.38;;;9.35;89.79
65756;BME280;69208;47.502;18.940;2023-04-25T02:59:47;97057.91;;;9.36;89.01
65756;BME280;69208;47.502;18.940;2023-04-25T03:00:50;97068.84;;;9.29;89.43
65756;BME280;69208;47.502;18.940;2023-04-25T03:01:54;97064.50;;;9.50;88.66
65756;BME280;69208;47.502;18.940;2023-04-25T03:02:57;97057.13;;;9.44;88.51
65756;BME280;69208;47.502;18.940;2023-04-25T03:04:00;97064.03;;;9.40;88.73
65756;BME280;69208;47.502;18.940;2023-04-25T03:05:03;97063.00;;;9.41;89.15
65756;BME280;69208;47.502;18.940;2023-04-25T03:06:07;97059.28;;;9.42;88.93
65756;BME280;69208;47.502;18.940;2023-04-25T03:07:10;97059.16;;;9.38;88.85
65756;BME280;69208;47.502;18.940;2023-04-25T03:08:13;97057.91;;;9.36;88.64
65756;BME280;69208;47.502;18.940;2023-04-25T03:09:16;97068.38;;;9.36;88.50
65756;BME280;69208;47.502;18.940;2023-04-25T03:10:19;97061.91;;;9.24;89.68
65756;BME280;69208;47.502;18.940;2023-04-25T03:11:25;97053.91;;;9.38;89.13
65756;BME280;69208;47.502;18.940;2023-04-25T03:12:28;97058.69;;;9.27;88.88
65756;BME280;69208;47.502;18.940;2023-04-25T03:13:30;97061.00;;;9.20;89.68
65756;BME280;69208;47.502;18.940;2023-04-25T03:14:33;97055.94;;;9.24;89.46
65756;BME280;69208;47.502;18.940;2023-04-25T03:15:38;97059.94;;;9.21;89.41
65756;BME280;69208;47.502;18.940;2023-04-25T03:16:42;97054.84;;;9.07;90.37
65756;BME280;69208;47.502;18.940;2023-04-25T03:17:45;97058.56;;;9.06;90.49
65756;BME280;69208;47.502;18.940;2023-04-25T03:18:48;97052.72;;;9.18;89.97
65756;BME280;69208;47.502;18.940;2023-04-25T03:19:52;97061.16;;;9.24;89.55
65756;BME280;69208;47.502;18.940;2023-04-25T03:20:55;97053.19;;;9.20;89.64
65756;BME280;69208;47.502;18.940;2023-04-25T03:21:58;97043.47;;;9.38;88.83
65756;BME280;69208;47.502;18.940;2023-04-25T03:23:01;97062.38;;;9.35;88.87
65756;BME280;69208;47.502;18.940;2023-04-25T03:24:04;97050.25;;;9.22;89.75
65756;BME280;69208;47.502;18.940;2023-04-25T03:25:07;97049.63;;;9.25;88.89
65756;BME280;69208;47.502;18.940;2023-04-25T03:26:11;97056.84;;;9.19;89.04
65756;BME280;69208;47.502;18.940;2023-04-25T03:27:14;97054.38;;;9.23;89.12
65756;BME280;69208;47.502;18.940;2023-04-25T03:28:17;97050.56;;;9.20;89.25
65756;BME280;69208;47.502;18.940;2023-04-25T03:29:20;97057.94;;;9.09;89.55
65756;BME280;69208;47.502;18.940;2023-04-25T03:30:27;97050.38;;;9.17;89.56
65756;BME280;69208;47.502;18.940;2023-04-25T03:31:31;97046.72;;;9.18;89.71
65756;BME280;69208;47.502;18.940;2023-04-25T03:32:34;97049.00;;;9.10;90.69
65756;BME280;69208;47.502;18.940;2023-04-25T03:33:37;97058.41;;;9.03;90.88
65756;BME280;69208;47.502;18.940;2023-04-25T03:34:40;97052.09;;;8.95;90.83
65756;BME280;69208;47.502;18.940;2023-04-25T03:35:43;97047.34;;;8.97;90.55
65756;BME280;69208;47.502;18.940;2023-04-25T03:36:47;97059.94;;;9.04;90.77
65756;BME280;69208;47.502;18.940;2023-04-25T03:37:50;97054.72;;;8.95;91.29
65756;BME280;69208;47.502;18.940;2023-04-25T03:38:53;97043.81;;;8.84;91.90
65756;BME280;69208;47.502;18.940;2023-04-25T03:39:56;97055.03;;;9.02;91.80
65756;BME280;69208;47.502;18.940;2023-04-25T03:40:59;97052.56;;;8.88;91.96
65756;BME280;69208;47.502;18.940;2023-04-25T03:42:02;97057.31;;;8.95;91.00
65756;BME280;69208;47.502;18.940;2023-04-25T03:43:05;97051.63;;;8.93;91.34
65756;BME280;69208;47.502;18.940;2023-04-25T03:44:08;97055.03;;;8.85;92.25
65756;BME280;69208;47.502;18.940;2023-04-25T03:45:11;97056.28;;;8.87;91.98
65756;BME280;69208;47.502;18.940;2023-04-25T03:46:14;97049.97;;;8.88;92.05
65756;BME280;69208;47.502;18.940;2023-04-25T03:47:17;97056.25;;;9.05;91.21
65756;BME280;69208;47.502;18.940;2023-04-25T03:48:21;97049.97;;;8.97;91.57
65756;BME280;69208;47.502;18.940;2023-04-25T03:49:25;97053.47;;;8.93;92.08
65756;BME280;69208;47.502;18.940;2023-04-25T03:50:28;97048.59;;;8.91;92.67
65756;BME280;69208;47.502;18.940;2023-04-25T03:51:31;97056.88;;;8.76;93.37
65756;BME280;69208;47.502;18.940;2023-04-25T03:52:34;97058.87;;;8.79;93.47
65756;BME280;69208;47.502;18.940;2023-04-25T03:53:37;97060.88;;;8.82;93.03
65756;BME280;69208;47.502;18.940;2023-04-25T03:54:40;97052.72;;;8.92;92.73
65756;BME280;69208;47.502;18.940;2023-04-25T03:55:43;97055.94;;;8.89;93.07
65756;BME280;69208;47.502;18.940;2023-04-25T03:56:46;97052.72;;;8.92;93.01
65756;BME280;69208;47.502;18.940;2023-04-25T03:57:51;97059.94;;;8.86;93.51
65756;BME280;69208;47.502;18.940;2023-04-25T03:58:56;97066.53;;;8.93;94.06
65756;BME280;69208;47.502;18.940;2023-04-25T03:59:59;97063.31;;;8.87;92.84
65756;BME280;69208;47.502;18.940;2023-04-25T04:01:02;97067.91;;;8.99;92.85
65756;BME280;69208;47.502;18.940;2023-04-25T04:02:10;97059.31;;;8.89;93.53
65756;BME280;69208;47.502;18.940;2023-04-25T04:03:13;97070.22;;;8.83;94.31
65756;BME280;69208;47.502;18.940;2023-04-25T04:04:17;97068.09;;;8.76;95.13
65756;BME280;69208;47.502;18.940;2023-04-25T04:05:20;97070.69;;;8.68;95.12
65756;BME280;69208;47.502;18.940;2023-04-25T04:06:24;97064.38;;;8.60;95.59
65756;BME280;69208;47.502;18.940;2023-04-25T04:07:28;97071.75;;;8.66;95.87
65756;BME280;69208;47.502;18.940;2023-04-25T04:08:32;97075.28;;;8.71;95.18
65756;BME280;69208;47.502;18.940;2023-04-25T04:09:35;97070.06;;;8.71;95.00
65756;BME280;69208;47.502;18.940;2023-04-25T04:10:38;97071.75;;;8.75;95.08
65756;BME280;69208;47.502;18.940;2023-04-25T04:11:41;97078.38;;;8.73;95.20
65756;BME280;69208;47.502;18.940;2023-04-25T04:12:44;97075.59;;;8.69;95.54
65756;BME280;69208;47.502;18.940;2023-04-25T04:13:47;97069.47;;;8.82;94.20
65756;BME280;69208;47.502;18.940;2023-04-25T04:14:50;97073.00;;;8.78;94.37
65756;BME280;69208;47.502;18.940;2023-04-25T04:15:53;97084.03;;;8.75;94.11
65756;BME280;69208;47.502;18.940;2023-04-25T04:16:57;97074.69;;;8.74;94.57
65756;BME280;69208;47.502;18.940;2023-04-25T04:18:00;97083.44;;;8.78;94.29
65756;BME280;69208;47.502;18.940;2023-04-25T04:19:06;97081.75;;;8.82;94.53
65756;BME280;69208;47.502;18.940;2023-04-25T04:20:09;97083.28;;;8.74;94.44
65756;BME280;69208;47.502;18.940;2023-04-25T04:21:14;97082.50;;;8.56;95.67
65756;BME280;69208;47.502;18.940;2023-04-25T04:22:17;97081.28;;;8.62;95.76
65756;BME280;69208;47.502;18.940;2023-04-25T04:23:20;97091.25;;;8.60;96.47
65756;BME280;69208;47.502;18.940;2023-04-25T04:24:25;97090.50;;;8.69;96.14
65756;BME280;69208;47.502;18.940;2023-04-25T04:25:28;97083.91;;;8.80;94.23
65756;BME280;69208;47.502;18.940;2023-04-25T04:26:32;97083.59;;;8.64;94.93
65756;BME280;69208;47.502;18.940;2023-04-25T04:27:37;97089.13;;;8.71;95.23
65756;BME280;69208;47.502;18.940;2023-04-25T04:28:40;97087.41;;;8.75;94.86
65756;BME280;69208;47.502;18.940;2023-04-25T04:29:43;97084.22;;;8.70;94.79
65756;BME280;69208;47.502;18.940;2023-04-25T04:30:46;97085.41;;;8.55;96.01
65756;BME280;69208;47.502;18.940;2023-04-25T04:31:50;97094.63;;;8.61;96.57
65756;BME280;69208;47.502;18.940;2023-04-25T04:32:53;97082.94;;;8.50;96.92
65756;BME280;69208;47.502;18.940;2023-04-25T04:33:57;97093.38;;;8.50;97.34
65756;BME280;69208;47.502;18.940;2023-04-25T04:34:59;97086.31;;;8.50;97.63
65756;BME280;69208;47.502;18.940;2023-04-25T04:36:03;97087.88;;;8.60;97.27
65756;BME280;69208;47.502;18.940;2023-04-25T04:37:07;97086.66;;;8.66;96.52
65756;BME280;69208;47.502;18.940;2023-04-25T04:38:10;97096.16;;;8.53;97.36
65756;BME280;69208;47.502;18.940;2023-04-25T04:39:14;97092.00;;;8.52;97.33
65756;BME280;69208;47.502;18.940;2023-04-25T04:40:17;97092.47;;;8.63;97.35
65756;BME280;69208;47.502;18.940;2023-04-25T04:41:21;97097.69;;;8.54;97.94
65756;BME280;69208;47.502;18.940;2023-04-25T04:42:23;97094.00;;;8.47;97.97
65756;BME280;69208;47.502;18.940;2023-04-25T04:43:27;97092.31;;;8.59;97.77
65756;BME280;69208;47.502;18.940;2023-04-25T04:44:31;97096.66;;;8.64;97.48
65756;BME280;69208;47.502;18.940;2023-04-25T04:45:37;97088.22;;;8.76;96.34
65756;BME280;69208;47.502;18.940;2023-04-25T04:46:42;97097.69;;;8.54;97.97
65756;BME280;69208;47.502;18.940;2023-04-25T04:47:45;97099.97;;;8.47;98.72
65756;BME280;69208;47.502;18.940;2023-04-25T04:48:48;97097.22;;;8.52;99.65
65756;BME280;69208;47.502;18.940;2023-04-25T04:49:51;97106.28;;;8.63;98.34
65756;BME280;69208;47.502;18.940;2023-04-25T04:50:54;97097.53;;;8.59;99.52
65756;BME280;69208;47.502;18.940;2023-04-25T04:51:57;97105.81;;;8.53;100.00
65756;BME280;69208;47.502;18.940;2023-04-25T04:53:02;97103.09;;;8.58;100.00
65756;BME280;69208;47.502;18.940;2023-04-25T04:54:11;97104.59;;;8.50;99.63
65756;BME280;69208;47.502;18.940;2023-04-25T04:55:14;97101.97;;;8.50;100.00
65756;BME280;69208;47.502;18.940;2023-04-25T04:56:17;97096.59;;;8.47;99.92
65756;BME280;69208;47.502;18.940;2023-04-25T04:57:20;97104.44;;;8.47;100.00
65756;BME280;69208;47.502;18.940;2023-04-25T04:58:23;97095.22;;;8.40;100.00
65756;BME280;69208;47.502;18.940;2023-04-25T04:59:26;97094.00;;;8.47;100.00
65756;BME280;69208;47.502;18.940;2023-04-25T05:00:30;97095.50;;;8.39;100.00
65756;BME280;69208;47.502;18.940;2023-04-25T05:01:33;97100.81;;;8.34;100.00
65756;BME280;69208;47.502;18.940;2023-04-25T05:02:38;97097.34;;;8.38;100.00
65756;BME280;69208;47.502;18.940;2023-04-25T05:03:42;97094.53;;;8.26;100.00
65756;BME280;69208;47.502;18.940;2023-04-25T05:04:45;97092.81;;;8.21;100.00
65756;BME280;69208;47.502;18.940;2023-04-25T05:05:48;97100.03;;;8.25;100.00
65756;BME280;69208;47.502;18.940;2023-04-25T05:06:51;97097.03;;;8.40;100.00
65756;BME280;69208;47.502;18.940;2023-04-25T05:07:54;97087.63;;;8.30;100.00
65756;BME280;69208;47.502;18.940;2023-04-25T05:08:57;97092.03;;;8.21;100.00
65756;BME280;69208;47.502;18.940;2023-04-25T05:10:00;97093.75;;;8.26;100.00
65756;BME280;69208;47.502;18.940;2023-04-25T05:11:03;97093.56;;;8.22;100.00
65756;BME280;69208;47.502;18.940;2023-04-25T05:12:06;97090.97;;;8.22;100.00
65756;BME280;69208;47.502;18.940;2023-04-25T05:13:09;97092.66;;;8.18;100.00
65756;BME280;69208;47.502;18.940;2023-04-25T05:14:12;97097.53;;;8.11;100.00
65756;BME280;69208;47.502;18.940;2023-04-25T05:15:16;97092.78;;;8.13;100.00
65756;BME280;69208;47.502;18.940;2023-04-25T05:16:19;97095.53;;;8.08;100.00
65756;BME280;69208;47.502;18.940;2023-04-25T05:17:23;97093.88;;;8.20;100.00
65756;BME280;69208;47.502;18.940;2023-04-25T05:18:26;97088.34;;;8.13;100.00
65756;BME280;69208;47.502;18.940;2023-04-25T05:19:29;97095.56;;;8.16;100.00
65756;BME280;69208;47.502;18.940;2023-04-25T05:20:32;97088.34;;;8.13;100.00
65756;BME280;69208;47.502;18.940;2023-04-25T05:21:35;97089.41;;;8.12;100.00
65756;BME280;69208;47.502;18.940;2023-04-25T05:22:38;97097.81;;;8.09;100.00
65756;BME280;69208;47.502;18.940;2023-04-25T05:23:41;97094.12;;;8.02;100.00
65756;BME280;69208;47.502;18.940;2023-04-25T05:24:44;97090.13;;;8.04;100.00
65756;BME280;69208;47.502;18.940;2023-04-25T05:25:46;97090.91;;;8.05;100.00
65756;BME280;69208;47.502;18.940;2023-04-25T05:26:49;97086.16;;;8.07;100.00
65756;BME280;69208;47.502;18.940;2023-04-25T05:27:52;97085.88;;;8.08;100.00
65756;BME280;69208;47.502;18.940;2023-04-25T05:28:59;97089.53;;;8.07;100.00
65756;BME280;69208;47.502;18.940;2023-04-25T05:30:02;97092.94;;;8.08;100.00
65756;BME280;69208;47.502;18.940;2023-04-25T05:31:06;97081.97;;;7.97;100.00
65756;BME280;69208;47.502;18.940;2023-04-25T05:32:09;97078.47;;;8.02;100.00
65756;BME280;69208;47.502;18.940;2023-04-25T05:33:12;97093.22;;;8.06;100.00
65756;BME280;69208;47.502;18.940;2023-04-25T05:34:15;97089.50;;;7.98;100.00
65756;BME280;69208;47.502;18.940;2023-04-25T05:35:19;97090.69;;;7.92;100.00